Suedburg, Pennsylvania
Current Conditions -  °F | °C
As of 11:58 PM on Wednesday 22 Oct 2014 (Local Time) from KMUI Reporting Station
Overcast Overcast  
Wind Chill: 11°   Ceiling: 2100
Heat Index: 11°   Visibility: 10mi
Dew Point:   Wind: 15mph
Humidity: 87%   Direction: 310°NW
Pressure: 29.9"   Gusts: 24mph
Location:  40.5592°N, 76.3347°W
Report Text: KMUI 230358Z AUTO 31013G21KT 260V340 10SM OVC021 11/09 A2990 RMK AO2 SLP128 T01080087 $
Loading
Personal Weather Stations






























Interactive Weather Map
Tropical Storm Tracking
New forecast layout! Learn more

10-Day Weather Forecast

Advertisements
Track Severe Weather on mobile